createdAt,value
2018-12-18T00:00:10.682Z,1.30
2018-12-18T00:02:50.439Z,1.30
2018-12-18T00:05:31.675Z,1.30
2018-12-18T00:08:07.243Z,1.20
2018-12-18T00:10:44.668Z,1.10
2018-12-18T00:13:16.690Z,1.10
2018-12-18T00:15:52.923Z,1.10
2018-12-18T00:18:31.215Z,1.10
2018-12-18T00:21:06.951Z,1.00
2018-12-18T00:23:42.647Z,1.00
2018-12-18T00:26:14.842Z,0.90
2018-12-18T00:28:50.101Z,0.90
2018-12-18T00:31:26.370Z,0.90
2018-12-18T00:33:58.444Z,0.80
2018-12-18T00:36:35.670Z,0.80
2018-12-18T00:39:13.780Z,0.80
2018-12-18T00:41:49.168Z,0.90
2018-12-18T00:44:24.848Z,0.90
2018-12-18T00:46:56.814Z,0.80
2018-12-18T00:49:32.520Z,0.80
2018-12-18T00:52:08.260Z,0.70
2018-12-18T00:54:43.524Z,0.60
2018-12-18T00:57:15.554Z,0.60
2018-12-18T00:59:52.751Z,0.60
2018-12-18T01:02:24.691Z,0.50
2018-12-18T01:04:56.747Z,0.50
2018-12-18T01:07:31.984Z,0.50
2018-12-18T01:10:07.464Z,0.50
2018-12-18T01:12:39.390Z,0.50
2018-12-18T01:15:14.999Z,0.50
2018-12-18T01:17:47.161Z,0.60
2018-12-18T01:20:19.399Z,0.60
2018-12-18T01:22:51.527Z,0.60
2018-12-18T01:25:26.799Z,0.60
2018-12-18T01:27:59.071Z,0.50
2018-12-18T01:30:35.443Z,0.60
2018-12-18T01:33:13.790Z,0.60
2018-12-18T01:35:45.994Z,0.50
2018-12-18T01:38:21.299Z,0.40
2018-12-18T01:40:56.771Z,0.40
2018-12-18T01:43:32.123Z,0.40
2018-12-18T01:46:04.259Z,0.40
2018-12-18T01:48:36.481Z,0.50
2018-12-18T01:51:08.546Z,0.50
2018-12-18T01:53:40.855Z,0.50
2018-12-18T01:56:16.946Z,0.50
2018-12-18T02:01:26.427Z,0.50
2018-12-18T02:03:58.679Z,0.50
2018-12-18T02:06:30.848Z,0.40
2018-12-18T02:09:10.303Z,0.40
2018-12-18T02:11:42.347Z,0.40
2018-12-18T02:14:17.630Z,0.50
2018-12-18T02:16:53.080Z,0.50
2018-12-18T02:19:24.314Z,0.60
2018-12-18T02:21:59.590Z,0.50
2018-12-18T02:24:31.834Z,0.50
2018-12-18T02:27:04.107Z,0.60
2018-12-18T02:29:35.839Z,0.60
2018-12-18T02:32:08.004Z,0.60
2018-12-18T02:34:40.143Z,0.50
2018-12-18T02:37:15.407Z,0.50
2018-12-18T02:39:47.567Z,0.60
2018-12-18T02:42:23.060Z,0.50
2018-12-18T02:44:55.216Z,0.50
2018-12-18T02:47:27.380Z,0.60
2018-12-18T02:50:02.848Z,0.60
2018-12-18T02:52:34.821Z,0.60
2018-12-18T02:55:07.048Z,0.70
2018-12-18T02:57:39.227Z,0.80
2018-12-18T03:00:16.382Z,0.80
2018-12-18T03:02:55.529Z,0.70
2018-12-18T03:05:27.835Z,0.70
2018-12-18T03:08:17.610Z,0.70
2018-12-18T03:10:52.923Z,0.70
2018-12-18T03:13:24.989Z,0.50
2018-12-18T03:15:57.220Z,0.40
2018-12-18T03:18:29.352Z,0.30
2018-12-18T03:21:04.780Z,0.30
2018-12-18T03:23:36.815Z,0.30
2018-12-18T03:26:08.920Z,0.40
2018-12-18T03:28:44.263Z,0.40
2018-12-18T03:31:16.343Z,0.50
2018-12-18T03:33:48.508Z,0.40
2018-12-18T03:36:20.777Z,0.40
2018-12-18T03:38:52.843Z,0.40
2018-12-18T03:41:28.097Z,0.40
2018-12-18T03:44:00.341Z,0.40
2018-12-18T03:49:56.257Z,0.30
2018-12-18T03:52:31.611Z,0.10
2018-12-18T03:55:03.996Z,0.00
2018-12-18T03:57:35.760Z,-0.10
2018-12-18T04:00:09.759Z,-0.10
2018-12-18T04:02:45.525Z,-0.10
2018-12-18T04:05:17.813Z,-0.10
2018-12-18T04:07:54.751Z,0.00
2018-12-18T04:10:31.971Z,0.00
2018-12-18T04:13:07.749Z,0.00
2018-12-18T04:15:40.119Z,0.10
2018-12-18T04:18:11.584Z,0.00
2018-12-18T04:20:46.924Z,0.00
2018-12-18T04:23:24.012Z,0.00
2018-12-18T04:25:59.988Z,0.00
2018-12-18T04:28:32.207Z,0.00
2018-12-18T04:31:08.312Z,0.10
2018-12-18T04:33:40.395Z,0.10
2018-12-18T04:36:12.498Z,0.00
2018-12-18T04:38:44.663Z,-0.10
2018-12-18T04:41:16.817Z,-0.10
2018-12-18T04:43:52.221Z,-0.10
2018-12-18T04:46:28.526Z,-0.10
2018-12-18T04:49:07.707Z,-0.10
2018-12-18T04:51:39.867Z,-0.20
2018-12-18T04:54:15.831Z,-0.30
2018-12-18T04:56:52.850Z,-0.40
2018-12-18T04:59:28.083Z,-0.40
2018-12-18T05:02:03.706Z,-0.40
2018-12-18T05:04:35.847Z,-0.40
2018-12-18T05:07:11.301Z,-0.50
2018-12-18T05:09:43.442Z,-0.50
2018-12-18T05:12:18.962Z,-0.50
2018-12-18T05:14:54.723Z,-0.60
2018-12-18T05:17:30.092Z,-0.60
2018-12-18T05:20:05.833Z,-0.60
2018-12-18T05:22:38.129Z,-0.50
2018-12-18T05:26:28.638Z,-0.40
2018-12-18T05:29:04.491Z,-0.40
2018-12-18T05:31:36.536Z,-0.50
2018-12-18T05:34:12.126Z,-0.60
2018-12-18T05:36:43.375Z,-0.60
2018-12-18T05:39:14.723Z,-0.60
2018-12-18T05:41:46.865Z,-0.60
2018-12-18T05:44:22.272Z,-0.70
2018-12-18T05:46:54.375Z,-0.70
2018-12-18T05:49:26.531Z,-0.70
2018-12-18T05:51:58.719Z,-0.70
2018-12-18T05:54:30.916Z,-0.70
2018-12-18T05:57:02.154Z,-0.70
2018-12-18T05:59:37.497Z,-0.70
2018-12-18T06:02:12.896Z,-0.70
2018-12-18T06:04:45.087Z,-0.60
2018-12-18T06:07:17.242Z,-0.50
2018-12-18T06:09:52.595Z,-0.60
2018-12-18T06:12:27.924Z,-0.70
2018-12-18T06:15:00.074Z,-0.70
2018-12-18T06:17:32.138Z,-0.70
2018-12-18T06:20:07.599Z,-0.70
2018-12-18T06:22:43.025Z,-0.70
2018-12-18T06:25:16.514Z,-0.70
2018-12-18T06:27:52.388Z,-0.80
2018-12-18T06:30:28.136Z,-0.80
2018-12-18T06:33:00.341Z,-0.80
2018-12-18T06:35:36.416Z,-0.80
2018-12-18T06:38:11.687Z,-0.80
2018-12-18T06:40:43.906Z,-0.70
2018-12-18T06:43:15.864Z,-0.70
2018-12-18T06:45:51.125Z,-0.70
2018-12-18T06:48:23.375Z,-0.80
2018-12-18T06:50:58.675Z,-0.90
2018-12-18T06:53:30.758Z,-0.90
2018-12-18T06:56:02.927Z,-0.80
2018-12-18T06:58:34.961Z,-0.70
2018-12-18T07:01:07.244Z,-0.70
2018-12-18T07:03:42.518Z,-0.70
2018-12-18T07:06:19.599Z,-0.70
2018-12-18T07:08:51.715Z,-0.80
2018-12-18T07:11:27.211Z,-0.90
2018-12-18T07:13:59.428Z,-1.00
2018-12-18T07:16:31.582Z,-1.10
2018-12-18T07:19:03.774Z,-1.20
2018-12-18T07:21:39.124Z,-1.20
2018-12-18T07:24:14.487Z,-1.20
2018-12-18T07:26:46.467Z,-1.20
2018-12-18T07:29:18.651Z,-1.20
2018-12-18T07:31:50.991Z,-1.20
2018-12-18T07:34:23.138Z,-1.20
2018-12-18T07:36:58.553Z,-1.10
2018-12-18T07:39:30.921Z,-1.10
2018-12-18T07:42:03.338Z,-1.10
2018-12-18T07:44:35.372Z,-1.00
2018-12-18T07:47:07.526Z,-1.00
2018-12-18T07:49:39.778Z,-0.90
2018-12-18T07:52:11.868Z,-1.00
2018-12-18T07:54:47.163Z,-1.00
2018-12-18T07:57:22.540Z,-1.10
2018-12-18T07:59:57.888Z,-1.10
2018-12-18T08:02:33.764Z,-1.10
2018-12-18T08:05:09.460Z,-1.20
2018-12-18T08:07:44.812Z,-1.30
2018-12-18T08:10:20.073Z,-1.30
2018-12-18T08:12:55.304Z,-1.20
2018-12-18T08:15:33.543Z,-1.10
2018-12-18T08:18:08.806Z,-1.00
2018-12-18T08:20:40.891Z,-0.90
2018-12-18T08:23:16.361Z,-0.80
2018-12-18T08:25:48.491Z,-0.80
2018-12-18T08:28:20.532Z,-0.80
2018-12-18T08:30:55.803Z,-0.80
2018-12-18T08:33:28.030Z,-0.80
2018-12-18T08:36:03.471Z,-0.90
2018-12-18T08:38:35.925Z,-0.90
2018-12-18T08:41:11.839Z,-0.90
2018-12-18T08:43:44.131Z,-1.00
2018-12-18T08:46:21.440Z,-1.00
2018-12-18T08:48:57.229Z,-1.00
2018-12-18T08:51:46.986Z,-1.00
2018-12-18T08:54:22.355Z,-0.90
2018-12-18T08:56:57.736Z,-0.90
2018-12-18T08:59:33.207Z,-1.00
2018-12-18T09:02:08.864Z,-1.00
2018-12-18T09:04:44.114Z,-1.00
2018-12-18T09:07:19.475Z,-1.00
2018-12-18T09:09:57.727Z,-0.90
2018-12-18T09:12:29.810Z,-0.90
2018-12-18T09:15:11.927Z,-0.80
2018-12-18T09:17:48.799Z,-0.80
2018-12-18T09:20:24.168Z,-0.70
2018-12-18T09:22:59.451Z,-0.70
2018-12-18T09:25:31.438Z,-0.70
2018-12-18T09:28:03.681Z,-0.60
2018-12-18T09:30:42.329Z,-0.50
2018-12-18T09:33:12.953Z,-0.30
2018-12-18T09:35:50.129Z,-0.10
2018-12-18T09:38:26.955Z,0.10
2018-12-18T09:41:07.947Z,0.30
2018-12-18T09:43:44.931Z,0.40
2018-12-18T09:46:21.645Z,0.60
2018-12-18T09:48:53.971Z,0.50
2018-12-18T09:51:25.895Z,0.40
2018-12-18T09:53:57.971Z,0.30
2018-12-18T09:56:32.431Z,0.30
2018-12-18T09:59:04.835Z,0.30
2018-12-18T10:01:36.948Z,0.40
2018-12-18T10:04:12.228Z,0.50
2018-12-18T10:06:47.866Z,0.60
2018-12-18T10:09:23.141Z,0.70
2018-12-18T10:11:55.399Z,0.90
2018-12-18T10:14:30.687Z,1.00
2018-12-18T10:17:06.016Z,1.10
2018-12-18T10:19:41.584Z,1.30
2018-12-18T10:22:17.143Z,1.50
2018-12-18T10:24:49.295Z,1.80
2018-12-18T10:27:27.580Z,2.00
2018-12-18T10:30:03.054Z,2.10
2018-12-18T10:32:38.415Z,2.10
2018-12-18T10:35:10.548Z,2.10
2018-12-18T10:37:45.819Z,2.20
2018-12-18T10:40:17.969Z,2.30
2018-12-18T10:42:50.047Z,2.40
2018-12-18T10:45:21.815Z,2.40
2018-12-18T10:47:53.555Z,2.50
2018-12-18T10:50:28.803Z,2.50
2018-12-18T10:53:04.160Z,2.60
2018-12-18T10:55:36.196Z,2.60
2018-12-18T10:58:11.641Z,2.70
2018-12-18T11:00:49.090Z,2.70
2018-12-18T11:03:24.693Z,2.70
2018-12-18T11:06:00.313Z,2.80
2018-12-18T11:08:36.515Z,2.80
2018-12-18T11:11:08.447Z,2.80
2018-12-18T11:13:40.679Z,2.80
2018-12-18T11:16:16.047Z,2.80
2018-12-18T11:18:51.423Z,2.80
2018-12-18T11:21:28.517Z,2.80
2018-12-18T11:24:04.336Z,2.90
2018-12-18T11:26:45.001Z,2.90
2018-12-18T11:29:20.335Z,3.00
2018-12-18T11:31:55.790Z,3.00
2018-12-18T11:34:31.035Z,3.00
2018-12-18T11:37:06.415Z,3.10
2018-12-18T11:39:38.635Z,3.30
2018-12-18T11:42:14.022Z,3.40
2018-12-18T11:44:46.077Z,3.50
2018-12-18T11:47:24.405Z,3.60
2018-12-18T11:50:00.426Z,3.70
2018-12-18T11:52:40.333Z,3.70
2018-12-18T11:55:15.767Z,3.70
2018-12-18T11:57:51.117Z,3.70
2018-12-18T12:00:26.485Z,3.70
2018-12-18T12:02:58.654Z,3.70
2018-12-18T12:05:36.207Z,3.70
2018-12-18T12:08:08.089Z,3.80
2018-12-18T12:10:45.243Z,3.80
2018-12-18T12:13:20.653Z,3.90
2018-12-18T12:15:59.126Z,3.90
2018-12-18T12:18:36.039Z,4.00
2018-12-18T12:21:11.292Z,4.00
2018-12-18T12:23:43.375Z,4.10
2018-12-18T12:26:34.365Z,4.10
2018-12-18T12:29:10.130Z,4.20
2018-12-18T12:31:45.536Z,4.10
2018-12-18T12:34:20.900Z,4.10
2018-12-18T12:36:57.563Z,4.10
2018-12-18T12:39:32.976Z,4.20
2018-12-18T12:42:08.339Z,4.20
2018-12-18T12:44:51.506Z,4.30
2018-12-18T12:47:23.688Z,4.30
2018-12-18T12:49:58.969Z,4.40
2018-12-18T12:52:34.338Z,4.40
2018-12-18T12:55:06.853Z,4.40
2018-12-18T12:57:42.736Z,4.50
2018-12-18T13:00:18.168Z,4.50
2018-12-18T13:02:53.455Z,4.50
2018-12-18T13:05:25.621Z,4.60
2018-12-18T13:07:57.771Z,4.60
2018-12-18T13:10:29.668Z,4.70
2018-12-18T13:13:05.019Z,4.70
2018-12-18T13:15:37.376Z,4.70
2018-12-18T13:18:09.544Z,4.80
2018-12-18T13:20:40.835Z,4.70
2018-12-18T13:23:16.490Z,4.70
2018-12-18T13:25:53.497Z,4.70
2018-12-18T13:28:29.218Z,4.70
2018-12-18T13:31:01.458Z,4.70
2018-12-18T13:33:37.706Z,4.70
2018-12-18T13:36:09.954Z,4.60
2018-12-18T13:38:45.242Z,4.40
2018-12-18T13:41:17.400Z,4.30
2018-12-18T13:43:49.450Z,4.10
2018-12-18T13:46:24.818Z,4.00
2018-12-18T13:49:00.909Z,3.90
2018-12-18T13:51:36.911Z,3.80
2018-12-18T13:54:15.170Z,3.70
2018-12-18T13:56:46.734Z,3.60
2018-12-18T13:59:21.978Z,3.60
2018-12-18T14:01:57.531Z,3.50
2018-12-18T14:04:29.687Z,3.40
2018-12-18T14:07:01.879Z,3.40
2018-12-18T14:09:37.307Z,3.30
2018-12-18T14:12:09.290Z,3.30
2018-12-18T14:14:46.368Z,3.30
2018-12-18T14:17:21.619Z,3.20
2018-12-18T14:19:53.882Z,3.20
2018-12-18T14:22:30.314Z,3.10
2018-12-18T14:25:06.222Z,3.10
2018-12-18T14:27:38.250Z,3.00
2018-12-18T14:30:10.445Z,3.00
2018-12-18T14:32:42.852Z,3.00
2018-12-18T14:35:26.876Z,2.90
2018-12-18T14:37:58.865Z,2.80
2018-12-18T14:40:30.939Z,2.70
2018-12-18T14:43:07.018Z,2.70
2018-12-18T14:45:45.404Z,2.70
2018-12-18T14:48:17.459Z,2.60
2018-12-18T14:50:49.603Z,2.50
2018-12-18T14:53:26.786Z,2.50
2018-12-18T14:55:58.825Z,2.40
2018-12-18T14:58:30.997Z,2.30
2018-12-18T15:01:03.135Z,2.30
2018-12-18T15:03:38.519Z,2.20
2018-12-18T15:06:10.674Z,2.20
2018-12-18T15:08:50.716Z,2.20
2018-12-18T15:11:22.747Z,2.20
2018-12-18T15:14:01.044Z,2.10
2018-12-18T15:16:36.383Z,2.10
2018-12-18T15:19:11.733Z,2.00
2018-12-18T15:21:43.731Z,1.90
2018-12-18T15:24:19.004Z,1.90
2018-12-18T15:26:51.255Z,1.80
2018-12-18T15:29:27.425Z,1.80
2018-12-18T15:31:59.778Z,1.70
2018-12-18T15:34:31.840Z,1.60
2018-12-18T15:37:09.625Z,1.60
2018-12-18T15:39:41.713Z,1.50
2018-12-18T15:42:14.014Z,1.40
2018-12-18T15:44:49.902Z,1.30
2018-12-18T15:47:26.139Z,1.30
2018-12-18T15:50:01.390Z,1.20
2018-12-18T15:52:33.550Z,1.20
2018-12-18T15:55:06.051Z,1.10
2018-12-18T15:57:42.125Z,1.10
2018-12-18T16:00:14.468Z,1.00
2018-12-18T16:02:46.359Z,1.00
2018-12-18T16:05:21.854Z,1.10
2018-12-18T16:07:57.215Z,1.00
2018-12-18T16:10:32.475Z,1.00
2018-12-18T16:13:07.889Z,0.90
2018-12-18T16:15:43.236Z,0.80
2018-12-18T16:18:15.072Z,0.80
2018-12-18T16:20:50.336Z,0.70
2018-12-18T16:23:30.539Z,0.60
2018-12-18T16:26:07.360Z,0.60
2018-12-18T16:28:40.519Z,0.60
2018-12-18T16:31:15.858Z,0.60
2018-12-18T16:33:51.259Z,0.60
2018-12-18T16:36:23.340Z,0.50
2018-12-18T16:38:54.898Z,0.60
2018-12-18T16:41:27.034Z,0.50
2018-12-18T16:44:04.041Z,0.50
2018-12-18T16:46:39.302Z,0.50
2018-12-18T16:49:11.413Z,0.50
2018-12-18T16:51:47.710Z,0.50
2018-12-18T16:54:19.936Z,0.50
2018-12-18T16:56:55.794Z,0.40
2018-12-18T16:59:27.739Z,0.40
2018-12-18T17:01:59.883Z,0.40
2018-12-18T17:04:35.427Z,0.40
2018-12-18T17:07:12.608Z,0.40
2018-12-18T17:09:50.895Z,0.40
2018-12-18T17:12:26.311Z,0.30
2018-12-18T17:14:58.407Z,0.20
2018-12-18T17:17:30.543Z,0.20
2018-12-18T17:20:06.159Z,0.20
2018-12-18T17:22:42.215Z,0.20
2018-12-18T17:25:17.503Z,0.20
2018-12-18T17:27:49.579Z,0.20
2018-12-18T17:30:21.753Z,0.20
2018-12-18T17:32:57.095Z,0.20
2018-12-18T17:35:32.447Z,0.10
2018-12-18T17:38:04.543Z,0.10
2018-12-18T17:40:37.114Z,0.10
2018-12-18T17:43:14.299Z,0.00
2018-12-18T17:45:50.240Z,-0.10
2018-12-18T17:48:25.696Z,-0.10
2018-12-18T17:51:02.488Z,-0.20
2018-12-18T17:53:34.538Z,-0.20
2018-12-18T17:56:12.050Z,-0.20
2018-12-18T17:58:48.296Z,-0.10
2018-12-18T18:01:20.201Z,-0.20
2018-12-18T18:03:56.087Z,-0.20
2018-12-18T18:06:31.451Z,-0.20
2018-12-18T18:09:08.713Z,-0.20
2018-12-18T18:11:44.213Z,-0.20
2018-12-18T18:14:20.422Z,-0.30
2018-12-18T18:16:55.899Z,-0.30
2018-12-18T18:19:28.112Z,-0.40
2018-12-18T18:22:00.321Z,-0.40
2018-12-18T18:24:32.303Z,-0.40
2018-12-18T18:27:07.587Z,-0.30
2018-12-18T18:29:39.865Z,-0.30
2018-12-18T18:32:15.987Z,-0.30
2018-12-18T18:34:51.450Z,-0.20
2018-12-18T18:37:26.759Z,-0.30
2018-12-18T18:40:02.216Z,-0.30
2018-12-18T18:42:37.673Z,-0.30
2018-12-18T18:45:09.987Z,-0.30
2018-12-18T18:47:41.987Z,-0.30
2018-12-18T18:50:14.143Z,-0.40
2018-12-18T18:52:49.918Z,-0.50
2018-12-18T18:55:25.886Z,-0.50
2018-12-18T18:58:01.454Z,-0.50
2018-12-18T19:00:36.797Z,-0.50
2018-12-18T19:03:13.047Z,-0.40
2018-12-18T19:05:45.435Z,-0.30
2018-12-18T19:08:21.430Z,-0.30
2018-12-18T19:10:53.448Z,-0.30
2018-12-18T19:13:25.053Z,-0.30
2018-12-18T19:16:00.459Z,-0.30
2018-12-18T19:18:32.426Z,-0.30
2018-12-18T19:21:07.727Z,-0.40
2018-12-18T19:23:43.096Z,-0.40
2018-12-18T19:26:15.262Z,-0.50
2018-12-18T19:28:50.305Z,-0.40
2018-12-18T19:31:24.713Z,-0.30
2018-12-18T19:36:34.079Z,-0.40
2018-12-18T19:39:07.908Z,-0.40
2018-12-18T19:41:43.576Z,-0.40
2018-12-18T19:44:15.763Z,-0.50
2018-12-18T19:46:48.258Z,-0.50
2018-12-18T19:49:20.249Z,-0.50
2018-12-18T19:51:55.640Z,-0.50
2018-12-18T19:54:28.455Z,-0.60
2018-12-18T19:57:07.055Z,-0.60
2018-12-18T19:59:44.354Z,-0.70
2018-12-18T20:02:16.629Z,-0.80
2018-12-18T20:04:52.832Z,-0.70
2018-12-18T20:07:25.559Z,-0.70
2018-12-18T20:10:02.709Z,-0.70
2018-12-18T20:12:38.865Z,-0.80
2018-12-18T20:15:11.278Z,-0.80
2018-12-18T20:17:43.850Z,-0.80
2018-12-18T20:20:20.795Z,-0.80
2018-12-18T20:22:56.667Z,-0.70
2018-12-18T20:25:28.822Z,-0.70
2018-12-18T20:28:00.964Z,-0.70
2018-12-18T20:30:36.309Z,-0.70
2018-12-18T20:33:11.687Z,-0.70
2018-12-18T20:35:48.044Z,-0.70
2018-12-18T20:38:25.247Z,-0.70
2018-12-18T20:41:01.414Z,-0.80
2018-12-18T20:43:39.695Z,-0.80
2018-12-18T20:46:15.571Z,-0.80
2018-12-18T20:48:50.781Z,-0.80
2018-12-18T20:51:27.920Z,-0.80
2018-12-18T20:54:02.667Z,-0.80
2018-12-18T20:56:41.517Z,-0.80
2018-12-18T20:59:20.004Z,-0.80
2018-12-18T21:01:57.473Z,-0.70
2018-12-18T21:04:38.004Z,-0.70
2018-12-18T21:07:16.807Z,-0.80
2018-12-18T21:09:52.898Z,-0.80
2018-12-18T21:12:28.980Z,-0.80
2018-12-18T21:15:01.287Z,-0.80
2018-12-18T21:17:42.853Z,-0.80
2018-12-18T21:20:18.610Z,-0.70
2018-12-18T21:22:55.365Z,-0.70
2018-12-18T21:25:27.962Z,-0.70
2018-12-18T21:28:04.122Z,-0.70
2018-12-18T21:30:36.770Z,-0.70
2018-12-18T21:33:09.721Z,-0.60
2018-12-18T21:35:41.642Z,-0.60
2018-12-18T21:38:18.179Z,-0.50
2018-12-18T21:40:50.333Z,-0.50
2018-12-18T21:43:22.568Z,-0.50
2018-12-18T21:45:58.746Z,-0.40
2018-12-18T21:48:30.649Z,-0.30
2018-12-18T21:51:02.827Z,-0.30
2018-12-18T21:53:39.883Z,-0.20
2018-12-18T21:56:15.486Z,-0.20
2018-12-18T21:58:50.815Z,-0.10
2018-12-18T22:01:27.244Z,-0.10
2018-12-18T22:03:59.528Z,0.00
2018-12-18T22:06:36.739Z,0.00
2018-12-18T22:09:09.010Z,0.10
2018-12-18T22:11:46.617Z,0.10
2018-12-18T22:14:22.463Z,0.20
2018-12-18T22:16:54.672Z,0.20
2018-12-18T22:19:27.065Z,0.30
2018-12-18T22:25:33.037Z,0.40
2018-12-18T22:28:08.516Z,0.40
2018-12-18T22:30:45.574Z,0.40
2018-12-18T22:33:17.934Z,0.50
2018-12-18T22:35:53.558Z,0.50
2018-12-18T22:38:30.823Z,0.60
2018-12-18T22:41:10.951Z,0.60
2018-12-18T22:43:49.223Z,0.60
2018-12-18T22:46:24.558Z,0.60
2018-12-18T22:49:01.079Z,0.60
2018-12-18T22:51:37.983Z,0.60
2018-12-18T22:54:09.948Z,0.60
2018-12-18T22:56:42.016Z,0.60
2018-12-18T22:59:14.299Z,0.60
2018-12-18T23:01:49.595Z,0.70
2018-12-18T23:04:24.874Z,0.70
2018-12-18T23:06:59.471Z,0.70
2018-12-18T23:09:35.175Z,0.80
2018-12-18T23:12:07.354Z,0.90
2018-12-18T23:14:42.587Z,1.00
2018-12-18T23:17:18.273Z,1.00
2018-12-18T23:19:50.467Z,1.00
2018-12-18T23:22:25.719Z,1.00
2018-12-18T23:25:00.998Z,1.00
2018-12-18T23:27:32.983Z,1.10
2018-12-18T23:32:52.288Z,1.10
2018-12-18T23:35:27.575Z,1.10
2018-12-18T23:38:03.122Z,1.10
2018-12-18T23:40:39.347Z,1.00
